Time;durP1;ratioP1;P1;durP2;ratioP2;P2;SDS_P1;SDS_P2;PMS_P1;PMS_P2;Temp;Humidity;BMP_temperature;BMP_pressure;BME280_temperature;BME280_humidity;BME280_pressure;Samples;Min_cycle;Max_cycle;Signal;HPM_P1;HPM_P2
2022/10/01 00:00:02;;;;;;;18.25;12.45;;;;;;;;;;5091194;28;20020;-76
2022/10/01 00:02:28;;;;;;;18.63;12.63;;;;;;;;;;5091796;28;20066;-77
2022/10/01 00:04:55;;;;;;;19.27;13.50;;;;;;;;;;5090261;28;20028;-78
2022/10/01 00:07:21;;;;;;;18.00;12.85;;;;;;;;;;5077783;28;20557;-77
2022/10/01 00:09:47;;;;;;;18.58;12.80;;;;;;;;;;5088390;28;20464;-77
2022/10/01 00:12:15;;;;;;;19.55;12.35;;;;;;;;;;5079091;28;20020;-77
2022/10/01 00:14:41;;;;;;;18.33;12.52;;;;;;;;;;5087641;28;20023;-77
2022/10/01 00:17:07;;;;;;;19.20;13.13;;;;;;;;;;5093412;28;20075;-77
2022/10/01 00:19:34;;;;;;;19.42;13.10;;;;;;;;;;5094630;28;20082;-77
2022/10/01 00:22:00;;;;;;;17.63;12.88;;;;;;;;;;5078591;28;20123;-77
2022/10/01 00:24:26;;;;;;;19.83;12.63;;;;;;;;;;5084092;28;20066;-77
2022/10/01 00:26:53;;;;;;;18.75;12.50;;;;;;;;;;5088048;28;20043;-77
2022/10/01 00:29:19;;;;;;;20.27;13.63;;;;;;;;;;5093882;28;20555;-77
2022/10/01 00:31:45;;;;;;;18.83;13.80;;;;;;;;;;5088986;28;20078;-77
2022/10/01 00:34:14;;;;;;;17.58;12.07;;;;;;;;;;5091572;28;20048;-77
2022/10/01 00:36:41;;;;;;;18.15;12.32;;;;;;;;;;5094659;28;20079;-77
2022/10/01 00:39:07;;;;;;;20.25;13.35;;;;;;;;;;5077135;28;20027;-77
2022/10/01 00:41:34;;;;;;;19.40;13.35;;;;;;;;;;5094641;28;20077;-77
2022/10/01 00:44:19;;;;;;;18.73;13.05;;;;;;;;;;5093024;28;20024;-77
2022/10/01 00:46:45;;;;;;;19.98;13.20;;;;;;;;;;5084760;28;20522;-78
2022/10/01 00:49:18;;;;;;;18.02;12.38;;;;;;;;;;5094955;28;20028;-76
2022/10/01 00:51:46;;;;;;;22.15;13.73;;;;;;;;;;5089089;28;20115;-78
2022/10/01 00:54:14;;;;;;;21.98;15.20;;;;;;;;;;5072363;28;20435;-78
2022/10/01 00:56:41;;;;;;;19.23;13.02;;;;;;;;;;5091124;28;20016;-78
2022/10/01 00:59:07;;;;;;;20.80;13.77;;;;;;;;;;5093074;28;20035;-78
2022/10/01 01:01:36;;;;;;;19.55;12.80;;;;;;;;;;5091698;28;20364;-77
2022/10/01 01:04:02;;;;;;;18.73;12.35;;;;;;;;;;5096146;28;20052;-78
2022/10/01 01:06:28;;;;;;;19.67;13.30;;;;;;;;;;5093163;28;20078;-77
2022/10/01 01:08:55;;;;;;;18.77;13.02;;;;;;;;;;5089210;28;20055;-78
2022/10/01 01:11:21;;;;;;;18.83;13.00;;;;;;;;;;5088060;28;20444;-78
2022/10/01 01:14:17;;;;;;;19.25;12.30;;;;;;;;;;5081078;28;20103;-78
2022/10/01 01:16:51;;;;;;;19.52;12.68;;;;;;;;;;5061498;28;20060;-77
2022/10/01 01:19:36;;;;;;;18.13;12.23;;;;;;;;;;5093185;28;20050;-78
2022/10/01 01:22:04;;;;;;;20.55;13.55;;;;;;;;;;5068523;28;20117;-77
2022/10/01 01:24:36;;;;;;;18.10;11.95;;;;;;;;;;5071330;28;20036;-78
2022/10/01 01:27:18;;;;;;;18.75;12.68;;;;;;;;;;5071620;28;20039;-77
2022/10/01 01:29:52;;;;;;;18.42;12.73;;;;;;;;;;5068434;28;20507;-77
2022/10/01 01:32:22;;;;;;;19.48;12.50;;;;;;;;;;5071789;28;20087;-77
2022/10/01 01:34:50;;;;;;;17.92;12.80;;;;;;;;;;5071401;28;20029;-77
2022/10/01 01:37:17;;;;;;;18.48;13.20;;;;;;;;;;5067054;28;20028;-77
2022/10/01 01:39:45;;;;;;;17.63;11.45;;;;;;;;;;5070775;28;20032;-77
2022/10/01 01:42:18;;;;;;;19.17;12.70;;;;;;;;;;5071637;28;20035;-77
2022/10/01 01:44:46;;;;;;;19.40;13.02;;;;;;;;;;5071587;28;20029;-77
2022/10/01 01:47:13;;;;;;;19.98;13.25;;;;;;;;;;5070118;28;20082;-77
2022/10/01 01:49:39;;;;;;;17.25;11.60;;;;;;;;;;5056199;28;20033;-77
2022/10/01 01:52:12;;;;;;;17.95;12.27;;;;;;;;;;5064250;28;20032;-77
2022/10/01 01:54:38;;;;;;;16.50;11.68;;;;;;;;;;5070628;28;20024;-77
2022/10/01 01:57:06;;;;;;;16.55;11.32;;;;;;;;;;5068690;28;20515;-77
2022/10/01 01:59:34;;;;;;;18.33;11.80;;;;;;;;;;5068419;28;20033;-77
2022/10/01 02:02:00;;;;;;;17.67;11.63;;;;;;;;;;5063689;28;20028;-76
2022/10/01 02:04:33;;;;;;;17.33;11.63;;;;;;;;;;5071951;28;20035;-76
2022/10/01 02:07:17;;;;;;;17.65;12.93;;;;;;;;;;5070368;28;20082;-76
2022/10/01 02:10:07;;;;;;;16.95;11.85;;;;;;;;;;5064234;28;20036;-76
2022/10/01 02:12:45;;;;;;;15.65;11.35;;;;;;;;;;5064445;28;20488;-77
2022/10/01 02:15:20;;;;;;;17.45;11.73;;;;;;;;;;5068994;28;20032;-77
2022/10/01 02:17:53;;;;;;;16.55;11.85;;;;;;;;;;5068734;28;20060;-77
2022/10/01 02:20:51;;;;;;;17.02;11.60;;;;;;;;;;5070423;28;20036;-77
2022/10/01 02:23:22;;;;;;;19.15;12.57;;;;;;;;;;5032782;28;20048;-77
2022/10/01 02:25:49;;;;;;;16.05;11.52;;;;;;;;;;5094156;28;20450;-77
2022/10/01 02:28:17;;;;;;;19.30;13.70;;;;;;;;;;5071617;28;20036;-77
2022/10/01 02:30:44;;;;;;;19.10;13.07;;;;;;;;;;5089480;28;20027;-77
2022/10/01 02:33:12;;;;;;;16.67;12.00;;;;;;;;;;5093541;28;20099;-77
2022/10/01 02:35:41;;;;;;;18.27;13.18;;;;;;;;;;5089297;28;20020;-76
2022/10/01 02:38:09;;;;;;;19.38;13.13;;;;;;;;;;5089577;28;20475;-77
2022/10/01 02:40:38;;;;;;;17.00;12.32;;;;;;;;;;5094512;28;20032;-76
2022/10/01 02:43:10;;;;;;;17.33;12.05;;;;;;;;;;5087840;28;20032;-76
2022/10/01 02:45:37;;;;;;;18.00;12.52;;;;;;;;;;5093470;28;20117;-77
2022/10/01 02:48:04;;;;;;;17.77;11.82;;;;;;;;;;5089231;28;20036;-77
2022/10/01 02:50:34;;;;;;;19.40;13.48;;;;;;;;;;5086282;28;20024;-78
2022/10/01 02:53:05;;;;;;;17.17;11.75;;;;;;;;;;5093505;28;20028;-77
2022/10/01 02:55:34;;;;;;;17.08;12.07;;;;;;;;;;5092277;28;20028;-77
2022/10/01 02:58:00;;;;;;;18.75;12.63;;;;;;;;;;5078647;28;20021;-78
2022/10/01 03:00:27;;;;;;;17.33;12.63;;;;;;;;;;5084358;28;20054;-77
2022/10/01 03:02:53;;;;;;;18.02;12.30;;;;;;;;;;5093090;28;20131;-77
2022/10/01 03:05:19;;;;;;;19.63;13.02;;;;;;;;;;5092687;28;20553;-77
2022/10/01 03:07:46;;;;;;;17.02;12.38;;;;;;;;;;5063785;28;20028;-77
2022/10/01 03:10:14;;;;;;;18.58;12.68;;;;;;;;;;5088004;28;20451;-77
2022/10/01 03:12:41;;;;;;;18.10;12.20;;;;;;;;;;5089478;28;20059;-77
2022/10/01 03:15:08;;;;;;;17.23;11.60;;;;;;;;;;5092198;28;20016;-77
2022/10/01 03:17:36;;;;;;;18.00;12.75;;;;;;;;;;5092820;28;20032;-77
2022/10/01 03:20:02;;;;;;;19.30;13.35;;;;;;;;;;5091177;28;20391;-77
2022/10/01 03:22:28;;;;;;;18.35;12.80;;;;;;;;;;5089999;28;20063;-78
2022/10/01 03:24:55;;;;;;;20.27;12.65;;;;;;;;;;5093282;28;20055;-77
2022/10/01 03:27:21;;;;;;;18.20;12.07;;;;;;;;;;5092332;28;20344;-76
2022/10/01 03:29:47;;;;;;;19.58;12.93;;;;;;;;;;5093181;28;20032;-76
2022/10/01 03:32:14;;;;;;;19.85;13.75;;;;;;;;;;5089529;28;20027;-77
2022/10/01 03:34:40;;;;;;;17.83;13.25;;;;;;;;;;5084215;28;20021;-77
2022/10/01 03:37:06;;;;;;;20.58;13.73;;;;;;;;;;5090406;28;20387;-78
2022/10/01 03:39:32;;;;;;;19.40;14.00;;;;;;;;;;5087863;28;20078;-77
2022/10/01 03:41:58;;;;;;;20.00;13.70;;;;;;;;;;5069625;28;20471;-77
2022/10/01 03:44:24;;;;;;;20.27;12.90;;;;;;;;;;5089225;28;20839;-77
2022/10/01 03:46:50;;;;;;;19.48;13.10;;;;;;;;;;5074977;28;20625;-77
2022/10/01 03:49:16;;;;;;;18.48;12.68;;;;;;;;;;5085170;28;20495;-77
2022/10/01 03:51:44;;;;;;;18.13;12.93;;;;;;;;;;5092202;28;20016;-78
2022/10/01 03:54:10;;;;;;;20.42;13.13;;;;;;;;;;5091217;28;20388;-78
2022/10/01 03:56:37;;;;;;;22.40;14.43;;;;;;;;;;5090254;28;20030;-77
2022/10/01 03:59:03;;;;;;;19.25;13.82;;;;;;;;;;5094947;28;20028;-78
2022/10/01 04:01:29;;;;;;;19.27;13.40;;;;;;;;;;5094253;28;20020;-78
2022/10/01 04:03:55;;;;;;;19.38;13.32;;;;;;;;;;5092342;28;20143;-78
2022/10/01 04:06:21;;;;;;;18.52;12.40;;;;;;;;;;5091052;28;20067;-78
2022/10/01 04:08:47;;;;;;;18.65;12.57;;;;;;;;;;5088873;28;20529;-78
2022/10/01 04:11:13;;;;;;;19.33;12.80;;;;;;;;;;5081514;28;20036;-77
2022/10/01 04:13:39;;;;;;;19.75;13.00;;;;;;;;;;5091011;28;20016;-76
2022/10/01 04:16:06;;;;;;;20.63;13.45;;;;;;;;;;5090732;28;20036;-78
2022/10/01 04:18:33;;;;;;;20.20;13.15;;;;;;;;;;5083418;28;20084;-78
2022/10/01 04:20:59;;;;;;;19.55;13.88;;;;;;;;;;5062707;28;20036;-78
2022/10/01 04:23:26;;;;;;;21.90;14.00;;;;;;;;;;5050220;28;20044;-78
2022/10/01 04:25:52;;;;;;;19.77;13.43;;;;;;;;;;5054075;28;20480;-78
2022/10/01 04:28:18;;;;;;;22.10;13.43;;;;;;;;;;5058859;28;20040;-78
2022/10/01 04:30:45;;;;;;;19.95;13.25;;;;;;;;;;5053838;28;20497;-78
2022/10/01 04:33:12;;;;;;;19.75;13.73;;;;;;;;;;5072078;28;20025;-77
2022/10/01 04:35:38;;;;;;;20.50;14.00;;;;;;;;;;5072985;28;20025;-78
2022/10/01 04:38:11;;;;;;;17.45;12.00;;;;;;;;;;5072311;28;20075;-78
2022/10/01 04:40:37;;;;;;;20.42;14.15;;;;;;;;;;5064838;28;20030;-78
2022/10/01 04:43:04;;;;;;;19.13;12.02;;;;;;;;;;5067219;28;20039;-78
2022/10/01 04:45:31;;;;;;;19.15;13.82;;;;;;;;;;5069479;28;20039;-78
2022/10/01 04:47:58;;;;;;;20.67;13.98;;;;;;;;;;5071651;28;20572;-77
2022/10/01 04:50:25;;;;;;;20.63;14.82;;;;;;;;;;5060408;28;20090;-77
2022/10/01 04:52:51;;;;;;;21.80;14.75;;;;;;;;;;5065212;28;20028;-76
2022/10/01 04:55:19;;;;;;;20.10;14.02;;;;;;;;;;5068920;28;20125;-76
2022/10/01 04:57:45;;;;;;;20.63;14.20;;;;;;;;;;5066171;28;20086;-76
2022/10/01 05:00:13;;;;;;;22.08;14.65;;;;;;;;;;5070141;28;20025;-77
2022/10/01 05:02:39;;;;;;;22.30;13.82;;;;;;;;;;5064396;28;20017;-77
2022/10/01 05:05:06;;;;;;;21.13;13.48;;;;;;;;;;5071627;28;20024;-78
2022/10/01 05:07:33;;;;;;;17.95;12.15;;;;;;;;;;5068120;28;20400;-78
2022/10/01 05:10:00;;;;;;;17.48;11.57;;;;;;;;;;5071555;28;20036;-78
2022/10/01 05:12:26;;;;;;;17.73;12.20;;;;;;;;;;5070250;28;20095;-78
2022/10/01 05:14:53;;;;;;;18.20;11.90;;;;;;;;;;5068945;28;20028;-79
2022/10/01 05:17:19;;;;;;;17.23;12.32;;;;;;;;;;5069971;28;20032;-77
2022/10/01 05:19:46;;;;;;;18.17;12.95;;;;;;;;;;5071740;28;20027;-78
2022/10/01 05:22:12;;;;;;;17.58;12.65;;;;;;;;;;5079062;28;20403;-78
2022/10/01 05:24:45;;;;;;;18.73;12.68;;;;;;;;;;5091365;28;20024;-78
2022/10/01 05:27:12;;;;;;;17.52;12.18;;;;;;;;;;5088048;28;20028;-77
2022/10/01 05:29:40;;;;;;;20.25;11.68;;;;;;;;;;5084956;28;20496;-76
2022/10/01 05:32:06;;;;;;;17.65;12.10;;;;;;;;;;5089551;28;20024;-77
2022/10/01 05:34:32;;;;;;;18.58;12.75;;;;;;;;;;5088424;28;20094;-76
2022/10/01 05:36:58;;;;;;;18.38;11.55;;;;;;;;;;5083113;28;20476;-76
2022/10/01 05:39:24;;;;;;;17.80;12.23;;;;;;;;;;5088994;28;20688;-77
2022/10/01 05:41:54;;;;;;;18.90;12.55;;;;;;;;;;5086120;28;20523;-76
2022/10/01 05:44:20;;;;;;;19.33;12.25;;;;;;;;;;5090688;28;20071;-77
2022/10/01 05:46:46;;;;;;;17.83;12.35;;;;;;;;;;5091352;28;20036;-79
2022/10/01 05:49:12;;;;;;;16.98;12.75;;;;;;;;;;5089025;28;21663;-78
2022/10/01 05:51:38;;;;;;;20.77;13.15;;;;;;;;;;5064977;28;20017;-78
2022/10/01 05:54:04;;;;;;;17.58;11.73;;;;;;;;;;5080744;28;20480;-78
2022/10/01 05:56:30;;;;;;;18.30;11.85;;;;;;;;;;5092038;28;20024;-78
2022/10/01 05:58:57;;;;;;;17.70;11.65;;;;;;;;;;5095887;28;20023;-77
2022/10/01 06:01:23;;;;;;;16.20;10.98;;;;;;;;;;5095587;28;20032;-78
2022/10/01 06:03:52;;;;;;;16.83;11.30;;;;;;;;;;5096030;28;20055;-78
2022/10/01 06:06:22;;;;;;;16.88;10.98;;;;;;;;;;5097393;28;20031;-78
2022/10/01 06:08:48;;;;;;;16.98;11.15;;;;;;;;;;5097103;28;20049;-78
2022/10/01 06:11:15;;;;;;;17.52;11.73;;;;;;;;;;5089564;28;20092;-78
2022/10/01 06:13:45;;;;;;;17.55;11.52;;;;;;;;;;5096787;28;20028;-78
2022/10/01 06:16:12;;;;;;;16.70;11.40;;;;;;;;;;5093696;28;20070;-78
2022/10/01 06:18:38;;;;;;;16.65;11.93;;;;;;;;;;5081584;28;20139;-78
2022/10/01 06:21:04;;;;;;;17.05;11.15;;;;;;;;;;5098005;28;20048;-77
2022/10/01 06:23:30;;;;;;;17.55;11.32;;;;;;;;;;5093319;28;20500;-78
2022/10/01 06:25:58;;;;;;;14.25;10.10;;;;;;;;;;5082951;28;20567;-77
2022/10/01 06:28:24;;;;;;;14.93;10.23;;;;;;;;;;5087612;28;20027;-77
2022/10/01 06:30:50;;;;;;;15.98;11.02;;;;;;;;;;5097954;28;20031;-78
2022/10/01 06:33:18;;;;;;;16.20;10.70;;;;;;;;;;5097528;28;20027;-78
2022/10/01 06:35:46;;;;;;;16.38;10.75;;;;;;;;;;5090998;28;20086;-78
2022/10/01 06:38:12;;;;;;;15.35;10.93;;;;;;;;;;5096945;28;20671;-78
2022/10/01 06:40:38;;;;;;;15.45;11.10;;;;;;;;;;5087767;28;20047;-78
2022/10/01 06:43:06;;;;;;;15.30;10.15;;;;;;;;;;5096956;28;20032;-78
2022/10/01 06:45:36;;;;;;;18.50;10.13;;;;;;;;;;5096010;28;20118;-77
2022/10/01 06:48:02;;;;;;;16.30;11.20;;;;;;;;;;5099179;28;20031;-77
2022/10/01 06:50:29;;;;;;;15.55;9.90;;;;;;;;;;5098866;28;20012;-78
2022/10/01 06:52:56;;;;;;;15.63;10.80;;;;;;;;;;5098721;28;20028;-78
2022/10/01 06:55:24;;;;;;;14.68;10.30;;;;;;;;;;5098301;28;20016;-78
2022/10/01 06:57:54;;;;;;;14.93;10.23;;;;;;;;;;5097153;28;20111;-78
2022/10/01 07:00:20;;;;;;;15.32;9.55;;;;;;;;;;5097843;28;20016;-79
2022/10/01 07:02:46;;;;;;;13.32;9.45;;;;;;;;;;5095258;28;20511;-79
2022/10/01 07:05:13;;;;;;;13.93;9.32;;;;;;;;;;5095569;28;20032;-78
2022/10/01 07:07:39;;;;;;;14.05;9.52;;;;;;;;;;5098651;28;20016;-78
2022/10/01 07:10:07;;;;;;;14.90;9.70;;;;;;;;;;5098903;28;20436;-78
2022/10/01 07:12:34;;;;;;;14.80;9.50;;;;;;;;;;5097078;28;20488;-78
2022/10/01 07:15:00;;;;;;;13.40;9.43;;;;;;;;;;5095337;28;20103;-77
2022/10/01 07:17:26;;;;;;;12.38;8.55;;;;;;;;;;5095705;28;20032;-78
2022/10/01 07:19:52;;;;;;;13.25;8.77;;;;;;;;;;5076242;28;20125;-78
2022/10/01 07:22:18;;;;;;;12.05;8.40;;;;;;;;;;5096131;28;20531;-79
2022/10/01 07:24:45;;;;;;;15.05;9.48;;;;;;;;;;5098039;28;20047;-79
2022/10/01 07:27:12;;;;;;;13.27;9.18;;;;;;;;;;5098870;28;20550;-79
2022/10/01 07:29:38;;;;;;;12.45;8.43;;;;;;;;;;5098179;28;20031;-79
2022/10/01 07:32:07;;;;;;;12.20;8.43;;;;;;;;;;5095275;28;20024;-79
2022/10/01 07:34:34;;;;;;;13.50;9.65;;;;;;;;;;5094501;28;20020;-79
2022/10/01 07:37:00;;;;;;;12.95;9.27;;;;;;;;;;5097720;28;20107;-79
2022/10/01 07:39:26;;;;;;;13.13;8.57;;;;;;;;;;5092065;28;20051;-78
2022/10/01 07:41:52;;;;;;;14.07;9.40;;;;;;;;;;5094499;28;20601;-79
2022/10/01 07:44:19;;;;;;;12.38;8.55;;;;;;;;;;5096649;28;20043;-79
2022/10/01 07:46:46;;;;;;;13.02;8.60;;;;;;;;;;5095919;28;20032;-79
2022/10/01 07:49:12;;;;;;;12.40;8.40;;;;;;;;;;5094932;28;20039;-77
2022/10/01 07:51:38;;;;;;;12.63;8.73;;;;;;;;;;5095463;28;20085;-77
2022/10/01 07:54:04;;;;;;;14.23;9.13;;;;;;;;;;5092521;28;20024;-77
2022/10/01 07:56:30;;;;;;;13.20;9.32;;;;;;;;;;5089767;28;20035;-78
2022/10/01 07:58:57;;;;;;;12.20;8.05;;;;;;;;;;5091338;28;20036;-77
2022/10/01 08:01:23;;;;;;;13.30;8.48;;;;;;;;;;5093285;28;20031;-78
2022/10/01 08:03:50;;;;;;;14.15;8.68;;;;;;;;;;5096388;28;20037;-78
2022/10/01 08:06:17;;;;;;;14.00;8.32;;;;;;;;;;5089868;28;20327;-78
2022/10/01 08:08:43;;;;;;;13.90;8.65;;;;;;;;;;5088569;28;20024;-78
2022/10/01 08:11:12;;;;;;;12.60;8.23;;;;;;;;;;5091647;28;20023;-78
2022/10/01 08:13:38;;;;;;;18.67;11.23;;;;;;;;;;5095591;28;20123;-77
2022/10/01 08:16:05;;;;;;;13.07;8.90;;;;;;;;;;5093622;28;20029;-77
2022/10/01 08:18:31;;;;;;;12.50;9.82;;;;;;;;;;5097675;28;20024;-77
2022/10/01 08:21:00;;;;;;;11.18;8.27;;;;;;;;;;5099965;28;20464;-77
2022/10/01 08:23:27;;;;;;;12.85;8.30;;;;;;;;;;5092566;28;20048;-77
2022/10/01 08:25:58;;;;;;;12.25;8.05;;;;;;;;;;5093979;28;20028;-77
2022/10/01 08:28:24;;;;;;;11.50;7.57;;;;;;;;;;5092660;28;20527;-77
2022/10/01 08:30:50;;;;;;;10.23;6.85;;;;;;;;;;5093243;28;20024;-78
2022/10/01 08:33:16;;;;;;;10.18;6.78;;;;;;;;;;5096851;28;20101;-78
2022/10/01 08:35:43;;;;;;;10.93;6.82;;;;;;;;;;5084522;28;20027;-77
2022/10/01 08:38:09;;;;;;;10.75;7.53;;;;;;;;;;5095117;28;20070;-78
2022/10/01 08:40:46;;;;;;;10.32;6.88;;;;;;;;;;5072844;28;20460;-78
2022/10/01 08:43:32;;;;;;;12.73;7.70;;;;;;;;;;5077566;28;20042;-77
2022/10/01 08:46:02;;;;;;;10.40;6.90;;;;;;;;;;5097744;28;20067;-78
2022/10/01 08:48:47;;;;;;;10.38;6.78;;;;;;;;;;5096105;28;20447;-78
2022/10/01 08:51:25;;;;;;;10.25;6.88;;;;;;;;;;5097694;28;20054;-78
2022/10/01 08:54:00;;;;;;;8.18;5.18;;;;;;;;;;5094939;28;20024;-78
2022/10/01 08:56:43;;;;;;;9.23;6.32;;;;;;;;;;5075501;28;20370;-78
2022/10/01 08:59:16;;;;;;;10.02;6.03;;;;;;;;;;5094244;28;20024;-78
2022/10/01 09:01:42;;;;;;;10.23;5.97;;;;;;;;;;5096096;28;20036;-78
2022/10/01 09:04:09;;;;;;;7.68;5.78;;;;;;;;;;5096956;28;20511;-79
2022/10/01 09:06:37;;;;;;;7.15;4.80;;;;;;;;;;5095126;28;20035;-78
2022/10/01 09:09:29;;;;;;;8.48;4.90;;;;;;;;;;5096000;28;20092;-79
2022/10/01 09:12:04;;;;;;;8.65;5.25;;;;;;;;;;5090827;28;20028;-78
2022/10/01 09:14:33;;;;;;;7.32;5.05;;;;;;;;;;5090848;28;20108;-78
2022/10/01 09:17:02;;;;;;;7.97;4.93;;;;;;;;;;5093797;28;20064;-78
2022/10/01 09:19:46;;;;;;;7.82;5.03;;;;;;;;;;5092229;28;20032;-78
2022/10/01 09:22:30;;;;;;;9.98;5.40;;;;;;;;;;5099017;28;20052;-77
2022/10/01 09:25:00;;;;;;;9.32;4.50;;;;;;;;;;5093609;28;20097;-78
2022/10/01 09:27:27;;;;;;;8.63;5.55;;;;;;;;;;5096170;28;20028;-78
2022/10/01 09:30:01;;;;;;;8.80;5.00;;;;;;;;;;5069283;28;20028;-78
2022/10/01 09:32:33;;;;;;;8.75;5.15;;;;;;;;;;5088940;28;20024;-78
2022/10/01 09:35:04;;;;;;;9.00;5.63;;;;;;;;;;5103154;28;20383;-78
2022/10/01 09:37:37;;;;;;;7.72;4.80;;;;;;;;;;5069623;28;20020;-77
2022/10/01 09:40:25;;;;;;;10.20;6.00;;;;;;;;;;5094840;28;20080;-77
2022/10/01 09:42:53;;;;;;;8.60;4.65;;;;;;;;;;5073358;28;20493;-77
2022/10/01 09:45:21;;;;;;;9.50;5.68;;;;;;;;;;5091129;28;20111;-77
2022/10/01 09:47:49;;;;;;;8.93;5.45;;;;;;;;;;5075685;28;20028;-77
2022/10/01 09:50:37;;;;;;;10.98;5.07;;;;;;;;;;5093243;28;20054;-78
2022/10/01 09:53:04;;;;;;;10.15;4.97;;;;;;;;;;5071611;28;20035;-78
2022/10/01 09:55:30;;;;;;;8.10;5.22;;;;;;;;;;5073265;28;20040;-79
2022/10/01 09:57:58;;;;;;;7.85;5.28;;;;;;;;;;5074269;28;20032;-77
2022/10/01 10:00:25;;;;;;;8.70;5.25;;;;;;;;;;5094848;28;20032;-77
2022/10/01 10:02:52;;;;;;;7.78;4.85;;;;;;;;;;5112018;28;20024;-78
2022/10/01 10:05:19;;;;;;;7.55;5.03;;;;;;;;;;5095783;28;20090;-77
2022/10/01 10:08:05;;;;;;;10.07;5.47;;;;;;;;;;5082937;28;20484;-78
2022/10/01 10:10:38;;;;;;;8.35;5.47;;;;;;;;;;5035445;28;20469;-78
2022/10/01 10:13:10;;;;;;;7.85;4.80;;;;;;;;;;5088015;28;20535;-78
2022/10/01 10:15:43;;;;;;;9.07;5.68;;;;;;;;;;5089675;28;20661;-78
2022/10/01 10:18:17;;;;;;;8.57;5.10;;;;;;;;;;5068344;28;20044;-78
2022/10/01 10:20:44;;;;;;;7.80;4.68;;;;;;;;;;5094721;28;20675;-77
2022/10/01 10:23:30;;;;;;;7.45;4.90;;;;;;;;;;5095554;28;20044;-77
2022/10/01 10:26:03;;;;;;;10.15;4.90;;;;;;;;;;5094256;28;20027;-78
2022/10/01 10:28:38;;;;;;;7.28;4.43;;;;;;;;;;5091375;28;20042;-77
2022/10/01 10:31:09;;;;;;;8.35;4.47;;;;;;;;;;5091126;28;20594;-77
2022/10/01 10:33:36;;;;;;;8.00;5.43;;;;;;;;;;5087583;28;20484;-77
2022/10/01 10:36:04;;;;;;;8.63;5.22;;;;;;;;;;5072796;28;20484;-76
2022/10/01 10:38:31;;;;;;;8.23;5.45;;;;;;;;;;5091537;28;20117;-77
2022/10/01 10:40:58;;;;;;;8.70;5.00;;;;;;;;;;5093424;28;20035;-77
2022/10/01 10:43:39;;;;;;;8.35;6.18;;;;;;;;;;5089178;28;20024;-77
2022/10/01 10:46:07;;;;;;;7.60;5.18;;;;;;;;;;5078094;28;20063;-77
2022/10/01 10:48:36;;;;;;;7.55;4.90;;;;;;;;;;5095847;28;20024;-77
2022/10/01 10:51:04;;;;;;;9.73;5.13;;;;;;;;;;5097215;28;20028;-78
2022/10/01 10:53:39;;;;;;;9.52;6.10;;;;;;;;;;5089589;28;20408;-78
2022/10/01 10:56:14;;;;;;;9.23;5.60;;;;;;;;;;5093656;28;20233;-78
2022/10/01 10:58:41;;;;;;;10.52;7.45;;;;;;;;;;5092804;28;20093;-78
2022/10/01 11:01:09;;;;;;;11.70;8.48;;;;;;;;;;5088625;28;20468;-78
2022/10/01 11:03:37;;;;;;;6.90;4.22;;;;;;;;;;5092740;28;20054;-77
2022/10/01 11:06:19;;;;;;;5.55;3.22;;;;;;;;;;5092498;28;20047;-79
2022/10/01 11:08:55;;;;;;;5.40;3.03;;;;;;;;;;5076831;28;20024;-79
2022/10/01 11:11:48;;;;;;;5.32;2.78;;;;;;;;;;5078227;28;20114;-78
2022/10/01 11:14:14;;;;;;;5.15;2.92;;;;;;;;;;5085985;28;20033;-78
2022/10/01 11:17:02;;;;;;;4.70;2.60;;;;;;;;;;5069518;28;20032;-77
2022/10/01 11:19:50;;;;;;;5.15;2.30;;;;;;;;;;5089909;28;20023;-78
2022/10/01 11:22:34;;;;;;;4.72;2.53;;;;;;;;;;5093248;28;20098;-78
2022/10/01 11:25:13;;;;;;;4.22;2.30;;;;;;;;;;5093997;28;20032;-78
2022/10/01 11:27:58;;;;;;;4.80;2.63;;;;;;;;;;5096088;28;20024;-78
2022/10/01 11:30:26;;;;;;;5.78;2.75;;;;;;;;;;5091803;28;20039;-78
2022/10/01 11:32:52;;;;;;;4.40;2.35;;;;;;;;;;5092251;28;20403;-78
2022/10/01 11:35:21;;;;;;;4.40;2.20;;;;;;;;;;5078024;28;20040;-78
2022/10/01 11:37:50;;;;;;;4.68;2.65;;;;;;;;;;5093510;28;20089;-78
2022/10/01 11:40:23;;;;;;;4.07;2.30;;;;;;;;;;5094892;28;20432;-78
2022/10/01 11:42:51;;;;;;;4.90;2.72;;;;;;;;;;5095476;28;20016;-78
2022/10/01 11:45:21;;;;;;;4.93;2.03;;;;;;;;;;5093550;28;20020;-78
2022/10/01 11:47:51;;;;;;;4.68;2.67;;;;;;;;;;5088975;28;20021;-79
2022/10/01 11:50:25;;;;;;;5.25;2.20;;;;;;;;;;5091823;28;20028;-78
2022/10/01 11:53:14;;;;;;;4.50;2.25;;;;;;;;;;5090828;28;20020;-78
2022/10/01 11:58:49;;;;;;;4.35;2.40;;;;;;;;;;5094978;28;20089;-78
2022/10/01 12:01:18;;;;;;;4.50;2.53;;;;;;;;;;5091469;28;20189;-79
2022/10/01 12:04:07;;;;;;;5.18;2.70;;;;;;;;;;5093593;28;20495;-78
2022/10/01 12:06:53;;;;;;;4.68;2.38;;;;;;;;;;5087511;28;20044;-79
2022/10/01 12:09:22;;;;;;;3.92;2.08;;;;;;;;;;5070822;28;20544;-77
2022/10/01 12:11:53;;;;;;;5.00;2.40;;;;;;;;;;5088817;28;20028;-78
2022/10/01 12:14:29;;;;;;;5.72;2.70;;;;;;;;;;5073573;28;20130;-77
2022/10/01 12:17:00;;;;;;;4.22;2.30;;;;;;;;;;5088417;28;20016;-78
2022/10/01 12:19:29;;;;;;;5.15;1.70;;;;;;;;;;5095891;28;20016;-78
2022/10/01 12:21:57;;;;;;;3.65;2.10;;;;;;;;;;5087359;28;20044;-78
2022/10/01 12:24:27;;;;;;;4.45;2.10;;;;;;;;;;5093194;28;20395;-78
2022/10/01 12:26:53;;;;;;;4.55;2.35;;;;;;;;;;5095380;28;20024;-78
2022/10/01 12:29:31;;;;;;;3.95;1.80;;;;;;;;;;5095243;28;20127;-78
2022/10/01 12:32:04;;;;;;;3.70;1.60;;;;;;;;;;5075220;28;20112;-78
2022/10/01 12:34:41;;;;;;;4.35;2.10;;;;;;;;;;5088080;28;20035;-79
2022/10/01 12:37:16;;;;;;;3.22;1.48;;;;;;;;;;5092165;28;20403;-78
2022/10/01 12:39:50;;;;;;;3.80;1.85;;;;;;;;;;5094342;28;20117;-78
2022/10/01 12:42:34;;;;;;;7.28;3.10;;;;;;;;;;5092378;28;20023;-76
2022/10/01 12:45:19;;;;;;;4.97;2.08;;;;;;;;;;5085109;28;20554;-77
2022/10/01 12:48:04;;;;;;;3.75;1.83;;;;;;;;;;5087062;28;20050;-77
2022/10/01 12:50:35;;;;;;;4.90;2.30;;;;;;;;;;5091237;28;20564;-77
2022/10/01 12:53:18;;;;;;;4.30;2.28;;;;;;;;;;5074146;28;20029;-78
2022/10/01 12:55:44;;;;;;;5.75;2.83;;;;;;;;;;5075709;28;20032;-79
2022/10/01 12:58:25;;;;;;;5.38;3.20;;;;;;;;;;5075631;28;20029;-78
2022/10/01 13:01:04;;;;;;;6.20;3.13;;;;;;;;;;5090943;28;20028;-78
2022/10/01 13:03:49;;;;;;;4.32;2.17;;;;;;;;;;5095976;28;20043;-79
2022/10/01 13:06:24;;;;;;;4.82;2.80;;;;;;;;;;5088332;28;20028;-78
2022/10/01 13:09:09;;;;;;;4.82;2.35;;;;;;;;;;5075892;28;20071;-78
2022/10/01 13:11:41;;;;;;;4.90;2.45;;;;;;;;;;5093554;28;20072;-78
2022/10/01 13:14:11;;;;;;;4.78;2.50;;;;;;;;;;5096296;28;20115;-81
2022/10/01 13:16:37;;;;;;;5.80;2.72;;;;;;;;;;5081766;28;20044;-78
2022/10/01 13:19:12;;;;;;;5.78;3.38;;;;;;;;;;5075202;28;20024;-78
2022/10/01 13:21:38;;;;;;;5.78;2.70;;;;;;;;;;5071475;28;20404;-77
2022/10/01 13:24:26;;;;;;;4.43;2.50;;;;;;;;;;5050607;28;20488;-78
2022/10/01 13:27:10;;;;;;;3.88;2.05;;;;;;;;;;5070470;28;20111;-77
2022/10/01 13:29:36;;;;;;;4.90;2.20;;;;;;;;;;5070501;28;20037;-77
2022/10/01 13:32:04;;;;;;;4.30;2.60;;;;;;;;;;5071277;28;20028;-77
2022/10/01 13:34:30;;;;;;;4.40;2.30;;;;;;;;;;5071805;28;20074;-78
2022/10/01 13:36:56;;;;;;;4.28;2.28;;;;;;;;;;5070244;28;20573;-77
2022/10/01 13:39:32;;;;;;;4.32;2.35;;;;;;;;;;5070888;28;20024;-77
2022/10/01 13:41:58;;;;;;;4.18;2.05;;;;;;;;;;5070812;28;20017;-77
2022/10/01 13:44:42;;;;;;;4.82;2.45;;;;;;;;;;5072001;28;20027;-79
2022/10/01 13:47:12;;;;;;;4.60;2.60;;;;;;;;;;5069416;28;20107;-77
2022/10/01 13:49:40;;;;;;;4.00;2.28;;;;;;;;;;5066662;28;20108;-77
2022/10/01 13:52:06;;;;;;;4.60;2.47;;;;;;;;;;5071633;28;20033;-77
2022/10/01 13:54:39;;;;;;;5.60;2.55;;;;;;;;;;5075470;28;20049;-78
2022/10/01 13:57:23;;;;;;;4.55;2.53;;;;;;;;;;5072096;28;20425;-77
2022/10/01 13:59:57;;;;;;;4.40;2.50;;;;;;;;;;5071604;28;20016;-78
2022/10/01 14:02:31;;;;;;;4.38;2.38;;;;;;;;;;5073186;28;20037;-78
2022/10/01 14:05:02;;;;;;;4.85;2.50;;;;;;;;;;5071492;28;20021;-79
2022/10/01 14:07:33;;;;;;;5.13;2.67;;;;;;;;;;5071254;28;20037;-78
2022/10/01 14:10:00;;;;;;;4.00;2.40;;;;;;;;;;5071759;28;20025;-77
2022/10/01 14:18:24;;;;;;;5.85;2.40;;;;;;;;;;4993870;28;20446;-78
2022/10/01 14:21:09;;;;;;;5.15;2.80;;;;;;;;;;4993926;28;20070;-80
2022/10/01 14:23:38;;;;;;;5.10;2.65;;;;;;;;;;4992688;28;20031;-77
2022/10/01 14:26:12;;;;;;;4.90;2.97;;;;;;;;;;4991843;28;20069;-78
2022/10/01 14:28:53;;;;;;;4.70;2.78;;;;;;;;;;4990991;28;20092;-78
2022/10/01 14:31:25;;;;;;;4.80;2.75;;;;;;;;;;4992668;28;20139;-79
2022/10/01 14:34:05;;;;;;;5.07;3.20;;;;;;;;;;4993453;28;20101;-77
2022/10/01 14:36:36;;;;;;;5.00;3.00;;;;;;;;;;4993957;28;20034;-79
2022/10/01 14:39:04;;;;;;;4.95;3.00;;;;;;;;;;4990915;28;20096;-78
2022/10/01 14:41:33;;;;;;;4.95;3.28;;;;;;;;;;4992808;28;20034;-77
2022/10/01 14:43:59;;;;;;;4.97;3.00;;;;;;;;;;4973958;28;20042;-79
2022/10/01 14:46:26;;;;;;;5.10;2.90;;;;;;;;;;4991506;28;20070;-77
2022/10/01 14:49:00;;;;;;;4.47;3.00;;;;;;;;;;4990948;28;20034;-77
2022/10/01 14:51:28;;;;;;;5.00;3.25;;;;;;;;;;5005266;28;20030;-78
2022/10/01 14:53:55;;;;;;;6.57;3.40;;;;;;;;;;5077491;28;20031;-78